createdAt,value
2018-11-26T00:00:07.169Z,52.77
2018-11-26T00:02:09.170Z,48.40
2018-11-26T00:04:11.149Z,50.37
2018-11-26T00:06:13.130Z,44.27
2018-11-26T00:08:15.105Z,48.40
2018-11-26T00:10:28.725Z,50.73
2018-11-26T00:12:30.710Z,50.90
2018-11-26T00:14:32.694Z,51.73
2018-11-26T00:16:34.676Z,46.67
2018-11-26T00:18:36.661Z,49.20
2018-11-26T00:20:38.651Z,48.37
2018-11-26T00:22:40.657Z,47.20
2018-11-26T00:24:42.633Z,43.93
2018-11-26T00:26:44.617Z,46.80
2018-11-26T00:28:46.590Z,44.80
2018-11-26T00:30:48.567Z,48.30
2018-11-26T00:32:50.545Z,49.27
2018-11-26T00:34:52.514Z,45.93
2018-11-26T00:36:54.502Z,47.37
2018-11-26T00:38:56.479Z,49.00
2018-11-26T00:40:58.457Z,49.40
2018-11-26T00:43:00.437Z,49.97
2018-11-26T00:45:02.433Z,52.67
2018-11-26T00:47:04.457Z,51.70
2018-11-26T00:49:06.442Z,51.67
2018-11-26T00:51:08.425Z,52.07
2018-11-26T00:53:10.406Z,52.83
2018-11-26T00:55:12.393Z,53.83
2018-11-26T00:57:14.374Z,58.23
2018-11-26T00:59:16.349Z,57.10
2018-11-26T01:01:18.329Z,56.63
2018-11-26T01:03:20.309Z,60.13
2018-11-26T01:05:40.496Z,55.70
2018-11-26T01:07:42.480Z,61.73
2018-11-26T01:09:44.440Z,52.97
2018-11-26T01:11:46.441Z,57.27
2018-11-26T01:13:48.417Z,52.87
2018-11-26T01:15:50.437Z,57.50
2018-11-26T01:17:52.425Z,57.07
2018-11-26T01:19:54.405Z,58.03
2018-11-26T01:21:56.394Z,60.67
2018-11-26T01:23:58.413Z,56.27
2018-11-26T01:26:00.395Z,58.53
2018-11-26T01:28:02.378Z,54.73
2018-11-26T01:30:05.162Z,58.07
2018-11-26T01:32:07.141Z,60.00
2018-11-26T01:34:09.129Z,57.00
2018-11-26T01:36:11.105Z,54.70
2018-11-26T01:38:13.082Z,56.37
2018-11-26T01:40:29.831Z,61.87
2018-11-26T01:42:31.821Z,57.27
2018-11-26T01:44:33.801Z,59.47
2018-11-26T01:46:35.769Z,57.67
2018-11-26T01:48:37.763Z,58.13
2018-11-26T01:50:39.743Z,58.00
2018-11-26T01:52:41.726Z,60.37
2018-11-26T01:54:43.717Z,59.37
2018-11-26T01:56:46.441Z,60.90
2018-11-26T01:58:48.455Z,61.47
2018-11-26T02:00:50.438Z,56.93
2018-11-26T02:02:52.785Z,56.87
2018-11-26T02:04:54.785Z,59.00
2018-11-26T02:06:56.765Z,57.63
2018-11-26T02:08:58.742Z,59.10
2018-11-26T02:11:00.730Z,52.10
2018-11-26T02:13:02.970Z,56.40
2018-11-26T02:15:07.078Z,58.57
2018-11-26T02:17:09.054Z,58.20
2018-11-26T02:19:11.037Z,55.43
2018-11-26T02:21:13.025Z,55.90
2018-11-26T02:23:15.010Z,56.33
2018-11-26T02:25:16.986Z,55.43
2018-11-26T02:27:18.973Z,55.60
2018-11-26T02:29:21.033Z,54.50
2018-11-26T02:31:23.018Z,54.20
2018-11-26T02:33:25.024Z,56.00
2018-11-26T02:35:27.003Z,54.50
2018-11-26T02:37:28.985Z,55.23
2018-11-26T02:39:30.978Z,52.47
2018-11-26T02:41:32.975Z,55.47
2018-11-26T02:43:34.968Z,60.33
2018-11-26T02:45:36.945Z,59.93
2018-11-26T02:47:38.929Z,54.17
2018-11-26T02:49:40.929Z,53.97
2018-11-26T02:51:42.906Z,57.53
2018-11-26T02:53:44.896Z,54.03
2018-11-26T02:55:46.873Z,59.67
2018-11-26T02:57:48.890Z,61.67
2018-11-26T02:59:50.869Z,60.87
2018-11-26T03:01:52.845Z,64.37
2018-11-26T03:03:54.841Z,66.30
2018-11-26T03:05:56.829Z,66.20
2018-11-26T03:07:58.831Z,62.27
2018-11-26T03:10:00.825Z,61.73
2018-11-26T03:12:02.810Z,63.10
2018-11-26T03:14:05.328Z,63.40
2018-11-26T03:16:07.319Z,56.07
2018-11-26T03:18:09.305Z,61.27
2018-11-26T03:20:11.298Z,60.03
2018-11-26T03:22:13.277Z,63.40
2018-11-26T03:24:15.266Z,64.80
2018-11-26T03:26:17.241Z,54.37
2018-11-26T03:28:19.241Z,60.00
2018-11-26T03:30:21.605Z,55.17
2018-11-26T03:32:23.575Z,55.37
2018-11-26T03:34:25.545Z,61.53
2018-11-26T03:36:27.529Z,55.37
2018-11-26T03:38:49.286Z,58.73
2018-11-26T03:40:51.269Z,55.70
2018-11-26T03:42:53.237Z,53.37
2018-11-26T03:44:55.233Z,52.50
2018-11-26T03:46:57.225Z,53.67
2018-11-26T03:48:59.210Z,52.93
2018-11-26T03:51:01.185Z,54.10
2018-11-26T03:53:03.169Z,52.77
2018-11-26T03:55:06.413Z,51.53
2018-11-26T03:57:08.386Z,52.33
2018-11-26T03:59:10.378Z,52.20
2018-11-26T04:01:12.363Z,50.83
2018-11-26T04:03:14.330Z,51.17
2018-11-26T04:05:16.325Z,53.33
2018-11-26T04:07:18.304Z,50.07
2018-11-26T04:09:20.285Z,48.57
2018-11-26T04:11:22.262Z,49.17
2018-11-26T04:13:24.241Z,49.00
2018-11-26T04:15:26.225Z,48.23
2018-11-26T04:17:28.201Z,47.27
2018-11-26T04:19:30.189Z,49.87
2018-11-26T04:21:32.165Z,46.53
2018-11-26T04:23:34.141Z,48.73
2018-11-26T04:25:36.104Z,46.57
2018-11-26T04:27:38.090Z,49.47
2018-11-26T04:29:40.092Z,49.20
2018-11-26T04:31:42.070Z,49.67
2018-11-26T04:33:44.041Z,48.30
2018-11-26T04:35:46.026Z,49.47
2018-11-26T04:37:48.010Z,49.07
2018-11-26T04:39:49.993Z,47.80
2018-11-26T04:41:51.969Z,48.30
2018-11-26T04:43:53.937Z,49.57
2018-11-26T04:45:55.917Z,52.00
2018-11-26T04:47:57.894Z,48.27
2018-11-26T04:49:59.881Z,48.63
2018-11-26T04:52:01.866Z,52.43
2018-11-26T04:54:04.054Z,47.37
2018-11-26T04:56:06.034Z,50.13
2018-11-26T04:58:08.014Z,46.63
2018-11-26T05:00:12.266Z,44.83
2018-11-26T05:02:14.246Z,45.40
2018-11-26T05:04:16.230Z,48.47
2018-11-26T05:06:18.213Z,44.60
2018-11-26T05:08:20.191Z,49.20
2018-11-26T05:10:22.174Z,46.10
2018-11-26T05:12:24.158Z,44.20
2018-11-26T05:14:26.149Z,45.67
2018-11-26T05:16:28.141Z,43.97
2018-11-26T05:18:30.118Z,46.83
2018-11-26T05:20:32.114Z,44.87
2018-11-26T05:22:34.093Z,40.93
2018-11-26T05:24:36.069Z,42.03
2018-11-26T05:26:38.101Z,43.80
2018-11-26T05:28:40.086Z,45.53
2018-11-26T05:30:42.067Z,44.17
2018-11-26T05:32:44.043Z,45.43
2018-11-26T05:34:46.025Z,41.90
2018-11-26T05:36:48.013Z,39.57
2018-11-26T05:38:49.989Z,38.00
2018-11-26T05:40:52.165Z,40.70
2018-11-26T05:42:54.137Z,38.80
2018-11-26T05:44:56.118Z,39.50
2018-11-26T05:46:58.101Z,38.23
2018-11-26T05:49:00.082Z,37.00
2018-11-26T05:51:02.066Z,42.63
2018-11-26T05:53:04.421Z,42.37
2018-11-26T05:55:08.430Z,43.47
2018-11-26T05:57:10.433Z,42.40
2018-11-26T05:59:12.409Z,42.70
2018-11-26T06:01:14.393Z,43.40
2018-11-26T06:03:16.374Z,41.00
2018-11-26T06:05:18.349Z,41.80
2018-11-26T06:07:20.329Z,43.53
2018-11-26T06:09:22.305Z,43.77
2018-11-26T06:11:24.281Z,42.27
2018-11-26T06:13:26.254Z,41.80
2018-11-26T06:15:28.234Z,41.33
2018-11-26T06:17:30.221Z,42.27
2018-11-26T06:19:32.201Z,41.90
2018-11-26T06:21:34.328Z,42.67
2018-11-26T06:23:36.313Z,42.73
2018-11-26T06:25:38.294Z,41.03
2018-11-26T06:27:40.277Z,42.67
2018-11-26T06:29:42.261Z,41.40
2018-11-26T06:31:44.254Z,41.17
2018-11-26T06:33:46.233Z,41.70
2018-11-26T06:35:48.209Z,40.97
2018-11-26T06:37:50.206Z,41.90
2018-11-26T06:39:52.189Z,39.03
2018-11-26T06:41:54.174Z,37.47
2018-11-26T06:43:56.145Z,35.70
2018-11-26T06:45:58.129Z,41.43
2018-11-26T06:48:00.106Z,43.90
2018-11-26T06:50:02.093Z,44.30
2018-11-26T06:52:04.614Z,42.63
2018-11-26T06:54:06.598Z,41.20
2018-11-26T06:56:08.585Z,39.77
2018-11-26T06:58:10.577Z,39.23
2018-11-26T07:00:15.407Z,38.47
2018-11-26T07:02:17.385Z,38.17
2018-11-26T07:04:19.365Z,37.87
2018-11-26T07:06:21.347Z,39.10
2018-11-26T07:08:23.325Z,38.53
2018-11-26T07:10:25.294Z,36.80
2018-11-26T07:12:27.273Z,37.07
2018-11-26T07:14:29.249Z,41.70
2018-11-26T07:16:31.248Z,41.37
2018-11-26T07:18:33.353Z,36.77
2018-11-26T07:20:35.321Z,40.37
2018-11-26T07:22:37.305Z,38.60
2018-11-26T07:24:39.290Z,37.70
2018-11-26T07:26:41.271Z,37.67
2018-11-26T07:28:43.249Z,38.40
2018-11-26T07:30:45.238Z,42.70
2018-11-26T07:32:47.242Z,40.50
2018-11-26T07:34:49.221Z,40.73
2018-11-26T07:36:51.189Z,41.50
2018-11-26T07:38:53.265Z,42.10
2018-11-26T07:40:55.246Z,42.10
2018-11-26T07:43:00.556Z,43.03
2018-11-26T07:45:02.547Z,42.70
2018-11-26T07:47:04.525Z,41.67
2018-11-26T07:49:06.502Z,40.43
2018-11-26T07:51:08.486Z,39.70
2018-11-26T07:53:10.909Z,38.77
2018-11-26T07:55:14.140Z,41.80
2018-11-26T07:57:16.121Z,36.30
2018-11-26T07:59:18.115Z,39.17
2018-11-26T08:01:20.145Z,37.83
2018-11-26T08:03:22.121Z,38.70
2018-11-26T08:05:24.101Z,38.57
2018-11-26T08:07:26.073Z,40.70
2018-11-26T08:09:28.049Z,38.57
2018-11-26T08:11:30.023Z,43.20
2018-11-26T08:13:32.010Z,40.90
2018-11-26T08:15:33.989Z,38.90
2018-11-26T08:17:35.970Z,37.67
2018-11-26T08:19:37.941Z,35.80
2018-11-26T08:21:39.921Z,33.90
2018-11-26T08:23:41.921Z,34.93
2018-11-26T08:25:43.894Z,31.97
2018-11-26T08:27:46.813Z,34.27
2018-11-26T08:29:48.801Z,34.60
2018-11-26T08:31:50.785Z,34.03
2018-11-26T08:33:52.770Z,33.47
2018-11-26T08:36:00.581Z,34.17
2018-11-26T08:38:06.673Z,31.73
2018-11-26T08:40:10.777Z,34.57
2018-11-26T08:42:18.441Z,31.33
2018-11-26T08:44:26.295Z,32.70
2018-11-26T08:46:31.413Z,28.50
2018-11-26T08:48:33.405Z,28.67
2018-11-26T08:50:35.381Z,30.67
2018-11-26T08:52:37.418Z,30.03
2018-11-26T08:54:39.418Z,28.33
2018-11-26T08:56:41.397Z,29.37
2018-11-26T08:58:43.393Z,29.47
2018-11-26T09:00:45.371Z,28.17
2018-11-26T09:02:48.090Z,26.77
2018-11-26T09:04:55.873Z,28.70
2018-11-26T09:06:57.853Z,28.30
2018-11-26T09:08:59.843Z,24.33
2018-11-26T09:11:02.461Z,27.53
2018-11-26T09:13:04.433Z,26.50
2018-11-26T09:15:07.364Z,31.70
2018-11-26T09:17:09.346Z,28.90
2018-11-26T09:19:11.317Z,28.03
2018-11-26T09:21:13.293Z,25.73
2018-11-26T09:23:15.280Z,30.40
2018-11-26T09:25:17.265Z,26.37
2018-11-26T09:27:19.241Z,26.67
2018-11-26T09:29:21.233Z,27.57
2018-11-26T09:31:23.218Z,25.60
2018-11-26T09:33:25.201Z,23.33
2018-11-26T09:35:27.164Z,24.40
2018-11-26T09:37:29.142Z,25.67
2018-11-26T09:39:31.121Z,21.80
2018-11-26T09:41:33.097Z,23.70
2018-11-26T09:43:35.240Z,25.00
2018-11-26T09:45:40.560Z,24.07
2018-11-26T09:47:39.209Z,26.47
2018-11-26T09:49:41.198Z,21.40
2018-11-26T09:51:43.170Z,21.80
2018-11-26T09:53:45.153Z,27.43
2018-11-26T09:55:47.133Z,25.00
2018-11-26T09:57:49.113Z,23.33
2018-11-26T09:59:51.101Z,24.20
2018-11-26T10:01:53.585Z,25.10
2018-11-26T10:03:55.579Z,24.40
2018-11-26T10:05:57.558Z,24.57
2018-11-26T10:07:59.539Z,25.37
2018-11-26T10:10:01.518Z,26.60
2018-11-26T10:12:03.501Z,24.67
2018-11-26T10:14:06.771Z,27.70
2018-11-26T10:16:08.762Z,29.30
2018-11-26T10:18:10.741Z,27.80
2018-11-26T10:20:12.729Z,28.97
2018-11-26T10:22:14.718Z,27.63
2018-11-26T10:24:16.900Z,29.33
2018-11-26T10:26:18.698Z,31.47
2018-11-26T10:28:20.681Z,29.30
2018-11-26T10:30:23.491Z,27.67
2018-11-26T10:32:25.393Z,30.60
2018-11-26T10:34:27.372Z,29.43
2018-11-26T10:36:29.358Z,28.80
2018-11-26T10:38:31.338Z,28.63
2018-11-26T10:40:33.319Z,29.47
2018-11-26T10:42:35.316Z,30.40
2018-11-26T10:44:37.303Z,28.93
2018-11-26T10:46:39.313Z,31.43
2018-11-26T10:48:41.294Z,30.47
2018-11-26T10:50:43.277Z,29.20
2018-11-26T10:52:48.309Z,28.87
2018-11-26T10:54:50.286Z,29.70
2018-11-26T10:56:52.277Z,31.77
2018-11-26T10:58:54.253Z,29.37
2018-11-26T11:00:57.078Z,32.27
2018-11-26T11:02:59.058Z,32.53
2018-11-26T11:05:01.057Z,30.03
2018-11-26T11:07:03.038Z,31.37
2018-11-26T11:09:06.510Z,29.70
2018-11-26T11:11:08.489Z,30.43
2018-11-26T11:13:10.469Z,32.03
2018-11-26T11:15:12.592Z,31.30
2018-11-26T11:17:14.569Z,30.17
2018-11-26T11:19:16.541Z,30.50
2018-11-26T11:21:18.529Z,30.77
2018-11-26T11:23:20.514Z,29.03
2018-11-26T11:25:22.693Z,31.83
2018-11-26T11:27:24.669Z,31.17
2018-11-26T11:29:26.691Z,30.30
2018-11-26T11:31:28.679Z,32.90
2018-11-26T11:33:30.660Z,30.90
2018-11-26T11:35:32.746Z,32.43
2018-11-26T11:37:35.187Z,32.40
2018-11-26T11:39:37.170Z,32.00
2018-11-26T11:41:39.168Z,31.70
2018-11-26T11:43:41.153Z,38.40
2018-11-26T11:45:43.135Z,31.33
2018-11-26T11:47:45.126Z,28.90
2018-11-26T11:49:47.112Z,31.10
2018-11-26T11:51:49.104Z,31.63
2018-11-26T11:53:51.099Z,32.43
2018-11-26T11:55:53.083Z,31.13
2018-11-26T11:57:55.071Z,30.03
2018-11-26T11:59:57.918Z,32.03
2018-11-26T12:01:59.911Z,32.90
2018-11-26T12:04:01.974Z,31.10
2018-11-26T12:06:03.963Z,31.00
2018-11-26T12:08:06.819Z,30.33
2018-11-26T12:10:09.999Z,33.57
2018-11-26T12:12:11.983Z,30.70
2018-11-26T12:14:13.975Z,33.10
2018-11-26T12:16:15.959Z,33.10
2018-11-26T12:18:17.941Z,33.20
2018-11-26T12:20:19.931Z,32.90
2018-11-26T12:22:21.931Z,34.50
2018-11-26T12:24:23.915Z,33.40
2018-11-26T12:26:25.895Z,32.60
2018-11-26T12:28:27.879Z,32.20
2018-11-26T12:30:31.371Z,30.47
2018-11-26T12:32:33.235Z,32.33
2018-11-26T12:34:35.219Z,30.60
2018-11-26T12:36:37.203Z,33.07
2018-11-26T12:38:39.203Z,33.97
2018-11-26T12:40:41.190Z,33.83
2018-11-26T12:42:43.187Z,33.17
2018-11-26T12:44:47.392Z,34.30
2018-11-26T12:46:49.370Z,35.13
2018-11-26T12:48:51.362Z,33.37
2018-11-26T12:50:53.348Z,33.57
2018-11-26T12:52:55.335Z,32.70
2018-11-26T12:54:57.323Z,33.13
2018-11-26T12:56:59.307Z,30.97
2018-11-26T12:59:01.295Z,33.90
2018-11-26T13:01:03.479Z,35.30
2018-11-26T13:03:06.968Z,33.27
2018-11-26T13:05:11.427Z,29.27
2018-11-26T13:07:13.420Z,31.27
2018-11-26T13:09:15.410Z,31.93
2018-11-26T13:11:17.399Z,30.43
2018-11-26T13:13:19.386Z,31.97
2018-11-26T13:15:22.407Z,31.67
2018-11-26T13:17:24.391Z,41.33
2018-11-26T13:19:26.635Z,30.27
2018-11-26T13:21:28.611Z,29.87
2018-11-26T13:23:30.618Z,31.20
2018-11-26T13:25:34.147Z,31.37
2018-11-26T13:27:36.411Z,29.70
2018-11-26T13:29:45.194Z,32.03
2018-11-26T13:31:47.164Z,29.20
2018-11-26T13:33:49.163Z,30.60
2018-11-26T13:35:51.147Z,27.50
2018-11-26T13:37:53.131Z,29.73
2018-11-26T13:39:55.122Z,31.70
2018-11-26T13:41:57.102Z,28.93
2018-11-26T13:43:59.094Z,29.60
2018-11-26T13:46:01.074Z,31.13
2018-11-26T13:48:03.798Z,32.40
2018-11-26T13:50:08.514Z,30.50
2018-11-26T13:52:10.499Z,31.27
2018-11-26T13:54:12.495Z,31.40
2018-11-26T13:56:14.487Z,31.47
2018-11-26T13:58:16.462Z,29.80
2018-11-26T14:00:18.619Z,31.93
2018-11-26T14:02:20.630Z,30.90
2018-11-26T14:04:22.624Z,32.63
2018-11-26T14:06:24.614Z,30.57
2018-11-26T14:08:26.603Z,32.30
2018-11-26T14:10:28.655Z,29.23
2018-11-26T14:12:30.647Z,31.30
2018-11-26T14:14:32.638Z,32.60
2018-11-26T14:16:34.623Z,31.03
2018-11-26T14:18:36.594Z,27.80
2018-11-26T14:20:38.590Z,31.47
2018-11-26T14:22:40.628Z,30.70
2018-11-26T14:24:42.615Z,28.87
2018-11-26T14:26:44.607Z,29.53
2018-11-26T14:28:46.607Z,32.10
2018-11-26T14:30:48.599Z,29.87
2018-11-26T14:32:50.669Z,31.60
2018-11-26T14:34:52.659Z,32.27
2018-11-26T14:36:54.651Z,30.17
2018-11-26T14:38:56.630Z,29.27
2018-11-26T14:40:58.615Z,33.37
2018-11-26T14:43:00.602Z,31.90
2018-11-26T14:45:02.646Z,34.17
2018-11-26T14:47:05.619Z,36.13
2018-11-26T14:49:07.643Z,34.90
2018-11-26T14:51:09.634Z,32.30
2018-11-26T14:53:14.047Z,32.37
2018-11-26T14:55:17.946Z,33.73
2018-11-26T14:57:19.939Z,35.23
2018-11-26T14:59:21.927Z,31.43
2018-11-26T15:01:23.915Z,33.27
2018-11-26T15:03:25.895Z,38.10
2018-11-26T15:05:27.879Z,37.20
2018-11-26T15:07:29.863Z,35.47
2018-11-26T15:09:31.899Z,31.90
2018-11-26T15:11:33.846Z,31.50
2018-11-26T15:13:35.820Z,31.97
2018-11-26T15:15:37.801Z,33.13
2018-11-26T15:17:40.627Z,35.13
2018-11-26T15:19:42.607Z,38.97
2018-11-26T15:21:44.631Z,32.70
2018-11-26T15:23:46.610Z,30.90
2018-11-26T15:25:48.591Z,31.73
2018-11-26T15:27:51.645Z,30.27
2018-11-26T15:29:53.643Z,28.50
2018-11-26T15:31:55.635Z,36.75
2018-11-26T15:33:57.619Z,33.43
2018-11-26T15:35:59.603Z,29.80
2018-11-26T15:38:01.601Z,31.83
2018-11-26T15:40:03.811Z,28.50
2018-11-26T15:42:05.795Z,28.67
2018-11-26T15:44:07.804Z,26.57
2018-11-26T15:46:09.779Z,25.70
2018-11-26T15:48:11.862Z,28.10
2018-11-26T15:50:13.851Z,27.00
2018-11-26T15:52:15.853Z,27.77
2018-11-26T15:54:17.839Z,25.50
2018-11-26T15:56:19.827Z,26.20
2018-11-26T15:58:23.770Z,27.90
2018-11-26T16:00:24.526Z,26.20
2018-11-26T16:02:26.550Z,28.67
2018-11-26T16:04:28.534Z,26.40
2018-11-26T16:06:30.509Z,25.57
2018-11-26T16:08:32.503Z,24.73
2018-11-26T16:10:34.506Z,26.37
2018-11-26T16:12:36.486Z,26.50
2018-11-26T16:14:38.479Z,28.20
2018-11-26T16:16:40.459Z,26.10
2018-11-26T16:18:42.447Z,32.43
2018-11-26T16:20:44.427Z,29.87
2018-11-26T16:22:46.443Z,32.83
2018-11-26T16:24:48.434Z,25.83
2018-11-26T16:26:50.419Z,22.30
2018-11-26T16:28:52.407Z,31.70
2018-11-26T16:30:54.396Z,22.27
2018-11-26T16:32:57.200Z,31.23
2018-11-26T16:34:59.191Z,22.77
2018-11-26T16:37:01.175Z,25.10
2018-11-26T16:39:05.746Z,25.67
2018-11-26T16:41:07.738Z,21.40
2018-11-26T16:43:09.751Z,25.30
2018-11-26T16:45:12.947Z,34.63
2018-11-26T16:47:14.914Z,32.10
2018-11-26T16:49:16.906Z,29.37
2018-11-26T16:51:18.886Z,30.77
2018-11-26T16:53:20.870Z,28.30
2018-11-26T16:55:22.858Z,25.70
2018-11-26T16:57:24.842Z,23.07
2018-11-26T16:59:26.815Z,27.30
2018-11-26T17:01:28.807Z,28.97
2018-11-26T17:03:30.798Z,25.40
2018-11-26T17:05:35.817Z,24.73
2018-11-26T17:07:37.810Z,24.67
2018-11-26T17:09:39.828Z,24.33
2018-11-26T17:11:41.827Z,23.27
2018-11-26T17:13:43.828Z,25.63
2018-11-26T17:15:45.823Z,24.40
2018-11-26T17:17:47.816Z,21.90
2018-11-26T17:19:49.794Z,23.50
2018-11-26T17:21:51.779Z,25.10
2018-11-26T17:23:53.762Z,23.27
2018-11-26T17:25:55.754Z,23.13
2018-11-26T17:27:57.736Z,22.73
2018-11-26T17:29:59.743Z,23.30
2018-11-26T17:32:01.728Z,24.30
2018-11-26T17:34:04.667Z,21.07
2018-11-26T17:36:06.655Z,24.53
2018-11-26T17:38:08.645Z,24.13
2018-11-26T17:40:20.587Z,24.63
2018-11-26T17:42:22.567Z,23.57
2018-11-26T17:44:24.554Z,22.80
2018-11-26T17:46:26.539Z,23.20
2018-11-26T17:48:28.523Z,26.17
2018-11-26T17:50:37.670Z,25.63
2018-11-26T17:52:39.654Z,24.43
2018-11-26T17:54:41.651Z,26.93
2018-11-26T17:56:43.700Z,27.30
2018-11-26T17:58:45.679Z,26.10
2018-11-26T18:00:57.483Z,26.30
2018-11-26T18:02:59.466Z,22.97
2018-11-26T18:05:01.464Z,24.13
2018-11-26T18:07:03.470Z,24.23
2018-11-26T18:09:09.306Z,23.97
2018-11-26T18:11:11.299Z,26.00
2018-11-26T18:13:13.293Z,26.80
2018-11-26T18:15:15.442Z,24.60
2018-11-26T18:17:17.426Z,27.30
2018-11-26T18:19:19.407Z,23.60
2018-11-26T18:21:21.395Z,25.00
2018-11-26T18:23:23.382Z,27.70
2018-11-26T18:25:25.367Z,24.80
2018-11-26T18:27:27.358Z,27.53
2018-11-26T18:29:29.362Z,27.17
2018-11-26T18:31:31.335Z,27.80
2018-11-26T18:33:33.323Z,26.00
2018-11-26T18:35:35.803Z,27.97
2018-11-26T18:37:37.800Z,27.33
2018-11-26T18:39:39.807Z,27.17
2018-11-26T18:41:41.791Z,26.70
2018-11-26T18:43:43.775Z,29.03
2018-11-26T18:45:45.754Z,30.27
2018-11-26T18:47:47.867Z,28.13
2018-11-26T18:49:49.859Z,25.93
2018-11-26T18:51:51.843Z,25.80
2018-11-26T18:53:53.831Z,27.90
2018-11-26T18:55:55.815Z,29.37
2018-11-26T18:57:57.798Z,29.30
2018-11-26T18:59:59.786Z,30.83
2018-11-26T19:02:01.781Z,26.73
2018-11-26T19:04:03.935Z,27.10
2018-11-26T19:06:05.955Z,27.60
2018-11-26T19:08:07.939Z,26.70
2018-11-26T19:10:12.387Z,27.17
2018-11-26T19:12:14.379Z,27.30
2018-11-26T19:14:19.055Z,23.10
2018-11-26T19:16:23.175Z,23.47
2018-11-26T19:18:25.731Z,25.53
2018-11-26T19:20:27.718Z,26.47
2018-11-26T19:22:29.711Z,28.00
2018-11-26T19:24:31.708Z,24.80
2018-11-26T19:26:34.087Z,26.77
2018-11-26T19:28:36.117Z,27.70
2018-11-26T19:30:38.122Z,26.70
2018-11-26T19:32:40.678Z,25.93
2018-11-26T19:34:42.675Z,25.00
2018-11-26T19:36:44.667Z,26.70
2018-11-26T19:38:46.650Z,26.90
2018-11-26T19:40:48.637Z,23.57
2018-11-26T19:42:50.675Z,21.53
2018-11-26T19:44:52.674Z,24.40
2018-11-26T19:46:54.674Z,23.17
2018-11-26T19:48:56.667Z,23.40
2018-11-26T19:50:58.675Z,21.10
2018-11-26T19:53:00.879Z,20.07
2018-11-26T19:55:02.874Z,20.60
2018-11-26T19:57:04.867Z,20.70
2018-11-26T19:59:06.847Z,19.80
2018-11-26T20:01:08.851Z,23.70
2018-11-26T20:03:17.332Z,20.57
2018-11-26T20:05:21.654Z,18.70
2018-11-26T20:07:23.639Z,17.77
2018-11-26T20:09:25.623Z,18.40
2018-11-26T20:11:33.185Z,21.47
2018-11-26T20:13:29.607Z,18.70
2018-11-26T20:15:31.595Z,25.13
2018-11-26T20:17:33.587Z,21.70
2018-11-26T20:19:35.571Z,19.90
2018-11-26T20:21:37.711Z,21.27
2018-11-26T20:23:39.691Z,19.63
2018-11-26T20:25:41.682Z,22.40
2018-11-26T20:27:43.699Z,20.50
2018-11-26T20:29:45.703Z,20.07
2018-11-26T20:31:47.699Z,18.60
2018-11-26T20:33:49.707Z,18.93
2018-11-26T20:35:51.694Z,20.10
2018-11-26T20:37:53.687Z,18.30
2018-11-26T20:39:55.667Z,18.13
2018-11-26T20:41:57.667Z,21.37
2018-11-26T20:43:59.655Z,19.70
2018-11-26T20:46:01.635Z,18.70
2018-11-26T20:48:03.823Z,18.27
2018-11-26T20:50:12.426Z,18.43
2018-11-26T20:52:14.419Z,19.73
2018-11-26T20:54:16.408Z,19.03
2018-11-26T20:56:18.400Z,20.10
2018-11-26T20:58:20.391Z,20.83
2018-11-26T21:00:25.492Z,20.17
2018-11-26T21:02:27.491Z,22.53
2018-11-26T21:04:29.476Z,17.67
2018-11-26T21:06:31.462Z,19.77
2018-11-26T21:08:33.454Z,21.73
2018-11-26T21:10:35.625Z,21.07
2018-11-26T21:12:37.647Z,18.50
2018-11-26T21:14:39.639Z,22.60
2018-11-26T21:16:41.630Z,24.40
2018-11-26T21:18:43.615Z,22.20
2018-11-26T21:20:46.922Z,20.10
2018-11-26T21:22:48.922Z,20.07
2018-11-26T21:24:50.911Z,21.20
2018-11-26T21:26:52.885Z,20.27
2018-11-26T21:28:54.878Z,21.30
2018-11-26T21:30:56.878Z,19.67
2018-11-26T21:32:59.399Z,20.20
2018-11-26T21:35:00.863Z,18.87
2018-11-26T21:37:02.847Z,18.50
2018-11-26T21:39:08.235Z,16.60
2018-11-26T21:41:10.220Z,18.07
2018-11-26T21:43:12.243Z,18.33
2018-11-26T21:45:18.519Z,19.50
2018-11-26T21:47:20.508Z,18.47
2018-11-26T21:49:22.503Z,19.30
2018-11-26T21:51:24.491Z,15.20
2018-11-26T21:53:26.479Z,19.40
2018-11-26T21:55:28.463Z,19.47
2018-11-26T21:57:30.451Z,18.73
2018-11-26T21:59:32.467Z,19.60
2018-11-26T22:01:34.459Z,20.77
2018-11-26T22:03:36.450Z,20.20
2018-11-26T22:05:39.439Z,17.93
2018-11-26T22:07:41.423Z,17.23
2018-11-26T22:09:43.423Z,19.80
2018-11-26T22:11:45.411Z,19.20
2018-11-26T22:13:47.394Z,17.77
2018-11-26T22:15:49.389Z,16.70
2018-11-26T22:17:51.383Z,18.97
2018-11-26T22:19:53.371Z,19.13
2018-11-26T22:21:55.359Z,20.37
2018-11-26T22:23:57.378Z,18.13
2018-11-26T22:25:59.352Z,19.73
2018-11-26T22:28:01.851Z,17.70
2018-11-26T22:30:08.071Z,19.23
2018-11-26T22:32:10.059Z,19.80
2018-11-26T22:34:12.056Z,19.60
2018-11-26T22:36:14.040Z,19.60
2018-11-26T22:38:16.023Z,18.90
2018-11-26T22:40:19.691Z,19.17
2018-11-26T22:42:21.671Z,18.73
2018-11-26T22:44:23.659Z,18.47
2018-11-26T22:46:25.652Z,16.83
2018-11-26T22:48:27.678Z,16.53
2018-11-26T22:50:29.672Z,14.70
2018-11-26T22:52:31.647Z,17.50
2018-11-26T22:54:33.631Z,16.00
2018-11-26T22:56:35.619Z,16.43
2018-11-26T22:58:37.607Z,15.10
2018-11-26T23:00:50.074Z,16.87
2018-11-26T23:02:54.362Z,17.70
2018-11-26T23:04:56.347Z,16.80
2018-11-26T23:06:58.330Z,18.90
2018-11-26T23:09:00.318Z,17.30
2018-11-26T23:11:02.303Z,18.13
2018-11-26T23:13:04.655Z,16.00
2018-11-26T23:15:09.903Z,15.73
2018-11-26T23:17:11.883Z,15.60
2018-11-26T23:19:13.882Z,15.60
2018-11-26T23:21:15.867Z,15.13
2018-11-26T23:23:17.851Z,16.27
2018-11-26T23:25:20.099Z,16.40
2018-11-26T23:27:22.067Z,18.47
2018-11-26T23:29:24.074Z,17.83
2018-11-26T23:31:26.063Z,16.30
2018-11-26T23:33:28.051Z,16.90
2018-11-26T23:35:30.031Z,16.53
2018-11-26T23:37:32.011Z,15.97
2018-11-26T23:39:34.027Z,17.53
2018-11-26T23:41:36.011Z,17.13
2018-11-26T23:43:38.000Z,16.60
2018-11-26T23:45:39.987Z,16.47
2018-11-26T23:47:41.954Z,17.30
2018-11-26T23:49:43.952Z,17.43
2018-11-26T23:51:45.939Z,17.47
2018-11-26T23:53:47.919Z,15.87
2018-11-26T23:55:49.912Z,16.50
2018-11-26T23:57:52.135Z,15.37
2018-11-26T23:59:54.123Z,16.83
